Time;durP1;ratioP1;P1;durP2;ratioP2;P2;SDS_P1;SDS_P2;PMS_P1;PMS_P2;Temp;Humidity;BMP_temperature;BMP_pressure;BME280_temperature;BME280_humidity;BME280_pressure;Samples;Min_cycle;Max_cycle;Signal;HPM_P1;HPM_P2
2022/03/12 00:01:56;;;;;;;7.70;4.78;;;;;;;;;;5044830;28;20036;-73
2022/03/12 00:04:23;;;;;;;7.40;4.85;;;;;;;;;;5044828;28;20025;-73
2022/03/12 00:06:49;;;;;;;6.75;4.78;;;;;;;;;;5046579;28;20534;-72
2022/03/12 00:09:15;;;;;;;10.02;5.88;;;;;;;;;;5048492;28;20489;-73
2022/03/12 00:11:55;;;;;;;6.07;4.95;;;;;;;;;;5045605;28;20084;-72
2022/03/12 00:14:22;;;;;;;6.53;4.60;;;;;;;;;;5046404;28;20029;-73
2022/03/12 00:16:49;;;;;;;7.30;4.93;;;;;;;;;;5047324;28;20079;-73
2022/03/12 00:19:16;;;;;;;9.65;5.32;;;;;;;;;;5047293;28;20024;-73
2022/03/12 00:21:42;;;;;;;6.43;5.32;;;;;;;;;;5046139;28;20099;-73
2022/03/12 00:24:11;;;;;;;7.95;4.68;;;;;;;;;;5047089;28;20036;-73
2022/03/12 00:26:40;;;;;;;6.88;5.38;;;;;;;;;;5047356;28;20025;-73
2022/03/12 00:29:09;;;;;;;11.57;4.88;;;;;;;;;;5047239;28;20051;-73
2022/03/12 00:31:35;;;;;;;7.38;5.05;;;;;;;;;;5047220;28;20479;-73
2022/03/12 00:34:01;;;;;;;6.70;4.90;;;;;;;;;;5045583;28;20025;-73
2022/03/12 00:36:28;;;;;;;7.07;4.78;;;;;;;;;;5046871;28;20108;-72
2022/03/12 00:38:54;;;;;;;7.05;4.65;;;;;;;;;;5046967;28;20538;-72
2022/03/12 00:41:20;;;;;;;10.15;5.38;;;;;;;;;;5046772;28;20021;-73
2022/03/12 00:43:46;;;;;;;8.38;5.30;;;;;;;;;;5047014;28;20021;-73
2022/03/12 00:46:13;;;;;;;8.50;5.00;;;;;;;;;;5047326;28;20129;-73
2022/03/12 00:48:39;;;;;;;7.57;5.50;;;;;;;;;;5045259;28;20049;-73
2022/03/12 00:51:09;;;;;;;10.18;5.65;;;;;;;;;;5046593;28;20060;-73
2022/03/12 00:53:36;;;;;;;5.95;4.82;;;;;;;;;;5046405;28;20455;-72
2022/03/12 00:56:03;;;;;;;7.43;5.05;;;;;;;;;;5046803;28;20025;-73
2022/03/12 00:58:29;;;;;;;6.45;5.10;;;;;;;;;;5045831;28;20098;-73
2022/03/12 01:00:55;;;;;;;10.48;5.82;;;;;;;;;;5045152;28;20605;-73
2022/03/12 01:03:21;;;;;;;10.13;5.63;;;;;;;;;;5043374;28;20021;-73
2022/03/12 01:05:53;;;;;;;7.90;5.40;;;;;;;;;;5043700;28;20091;-72
2022/03/12 01:08:20;;;;;;;;;;;;;;;;;;5046576;28;20068;-72
2022/03/12 01:10:47;;;;;;;7.10;5.07;;;;;;;;;;5045590;28;20381;-73
2022/03/12 01:13:13;;;;;;;7.28;5.10;;;;;;;;;;5046513;28;20037;-73
2022/03/12 01:15:40;;;;;;;7.78;5.43;;;;;;;;;;5044722;28;20033;-73
2022/03/12 01:18:13;;;;;;;7.30;5.43;;;;;;;;;;5045156;28;20025;-73
2022/03/12 01:20:40;;;;;;;10.98;7.18;;;;;;;;;;5046564;28;20169;-73
2022/03/12 01:23:07;;;;;;;8.85;6.60;;;;;;;;;;5046220;28;20154;-73
2022/03/12 01:25:33;;;;;;;9.40;5.70;;;;;;;;;;5045961;28;20025;-72
2022/03/12 01:27:59;;;;;;;8.23;5.82;;;;;;;;;;5046287;28;20594;-73
2022/03/12 01:30:27;;;;;;;7.72;5.68;;;;;;;;;;5044942;28;20024;-72
2022/03/12 01:32:53;;;;;;;14.90;7.32;;;;;;;;;;5046165;28;20056;-73
2022/03/12 01:35:19;;;;;;;10.60;6.40;;;;;;;;;;5045817;28;20035;-73
2022/03/12 01:37:45;;;;;;;9.57;5.93;;;;;;;;;;5044584;28;20024;-72
2022/03/12 01:40:11;;;;;;;9.18;5.68;;;;;;;;;;5045871;28;20021;-73
2022/03/12 01:42:38;;;;;;;7.93;5.72;;;;;;;;;;5045745;28;20033;-73
2022/03/12 01:45:09;;;;;;;7.53;6.32;;;;;;;;;;5046543;28;20381;-73
2022/03/12 01:47:35;;;;;;;9.63;6.25;;;;;;;;;;5045805;28;20106;-72
2022/03/12 01:50:02;;;;;;;10.50;6.22;;;;;;;;;;5025150;28;20524;-73
2022/03/12 01:52:29;;;;;;;9.85;6.30;;;;;;;;;;5025874;28;20037;-73
2022/03/12 01:54:56;;;;;;;9.90;5.75;;;;;;;;;;5025731;28;20775;-72
2022/03/12 01:57:22;;;;;;;9.25;5.90;;;;;;;;;;5026079;28;20040;-73
2022/03/12 01:59:48;;;;;;;8.93;5.85;;;;;;;;;;5025543;28;20025;-73
2022/03/12 02:02:15;;;;;;;9.60;5.40;;;;;;;;;;5025587;28;20378;-73
2022/03/12 02:04:49;;;;;;;10.88;5.78;;;;;;;;;;5023867;28;20026;-72
2022/03/12 02:07:16;;;;;;;9.48;6.53;;;;;;;;;;5025705;28;20393;-72
2022/03/12 02:09:44;;;;;;;16.88;6.25;;;;;;;;;;5025976;28;20050;-73
2022/03/12 02:12:12;;;;;;;8.02;5.90;;;;;;;;;;5028582;28;20045;-73
2022/03/12 02:14:38;;;;;;;8.25;5.95;;;;;;;;;;5043839;28;20107;-73
2022/03/12 02:17:10;;;;;;;10.27;5.90;;;;;;;;;;5045396;28;20025;-73
2022/03/12 02:19:39;;;;;;;11.05;6.13;;;;;;;;;;5045047;28;20021;-73
2022/03/12 02:22:14;;;;;;;6.07;5.35;;;;;;;;;;5042049;28;20025;-74
2022/03/12 02:24:40;;;;;;;8.75;5.65;;;;;;;;;;5042296;28;20540;-74
2022/03/12 02:27:10;;;;;;;8.52;6.18;;;;;;;;;;5040409;28;20473;-73
2022/03/12 02:29:37;;;;;;;8.70;6.70;;;;;;;;;;5041864;28;20032;-73
2022/03/12 02:32:09;;;;;;;8.82;6.18;;;;;;;;;;5043858;28;20082;-74
2022/03/12 02:34:42;;;;;;;9.43;5.75;;;;;;;;;;5044927;28;20017;-73
2022/03/12 02:37:09;;;;;;;7.93;5.45;;;;;;;;;;5045092;28;20029;-73
2022/03/12 02:39:38;;;;;;;10.20;5.63;;;;;;;;;;5045128;28;20032;-74
2022/03/12 02:42:07;;;;;;;9.35;6.50;;;;;;;;;;5043444;28;20021;-74
2022/03/12 02:44:34;;;;;;;9.48;6.60;;;;;;;;;;5045055;28;20021;-74
2022/03/12 02:47:14;;;;;;;10.05;6.30;;;;;;;;;;5045072;28;20041;-73
2022/03/12 02:50:02;;;;;;;7.95;5.68;;;;;;;;;;5044918;28;20025;-73
2022/03/12 02:52:28;;;;;;;9.45;6.03;;;;;;;;;;5044746;28;20033;-74
2022/03/12 02:54:57;;;;;;;12.18;6.43;;;;;;;;;;5043435;28;20174;-74
2022/03/12 02:57:26;;;;;;;9.48;6.63;;;;;;;;;;5044802;28;20109;-74
2022/03/12 02:59:53;;;;;;;8.85;6.07;;;;;;;;;;5044538;28;20503;-74
2022/03/12 03:02:40;;;;;;;9.43;6.07;;;;;;;;;;5044481;28;20029;-74
2022/03/12 03:05:14;;;;;;;8.80;6.47;;;;;;;;;;5044878;28;20036;-73
2022/03/12 03:07:41;;;;;;;7.30;5.80;;;;;;;;;;5044692;28;20033;-73
2022/03/12 03:10:09;;;;;;;7.30;5.75;;;;;;;;;;5037745;28;20032;-74
2022/03/12 03:12:35;;;;;;;11.15;5.95;;;;;;;;;;5040404;28;20141;-73
2022/03/12 03:15:01;;;;;;;8.95;6.30;;;;;;;;;;5042202;28;20036;-73
2022/03/12 03:17:28;;;;;;;12.45;6.80;;;;;;;;;;5037645;28;20021;-74
2022/03/12 03:19:55;;;;;;;9.50;6.50;;;;;;;;;;5031422;28;20067;-73
2022/03/12 03:22:21;;;;;;;7.50;6.20;;;;;;;;;;5037860;28;20092;-73
2022/03/12 03:24:47;;;;;;;7.35;5.47;;;;;;;;;;5023180;28;20394;-73
2022/03/12 03:27:13;;;;;;;8.38;5.60;;;;;;;;;;5022505;28;20227;-73
2022/03/12 03:29:39;;;;;;;7.85;5.25;;;;;;;;;;5022567;28;20033;-73
2022/03/12 03:32:05;;;;;;;9.38;5.90;;;;;;;;;;5027998;28;20030;-73
2022/03/12 03:34:32;;;;;;;7.60;5.90;;;;;;;;;;5021401;28;20026;-73
2022/03/12 03:36:59;;;;;;;7.13;5.40;;;;;;;;;;5041835;28;20029;-72
2022/03/12 03:39:25;;;;;;;7.20;5.40;;;;;;;;;;5041818;28;20029;-75
2022/03/12 03:41:51;;;;;;;7.25;5.47;;;;;;;;;;5043282;28;20021;-73
2022/03/12 03:44:23;;;;;;;17.50;7.05;;;;;;;;;;5041164;28;20116;-73
2022/03/12 03:46:49;;;;;;;8.57;5.90;;;;;;;;;;5041800;28;20033;-72
2022/03/12 03:49:16;;;;;;;8.25;5.72;;;;;;;;;;5035077;28;20033;-74
2022/03/12 03:51:43;;;;;;;10.05;6.88;;;;;;;;;;5043556;28;20527;-75
2022/03/12 03:54:10;;;;;;;10.43;7.80;;;;;;;;;;5037723;28;20033;-74
2022/03/12 03:56:37;;;;;;;10.13;7.28;;;;;;;;;;5027995;28;20108;-74
2022/03/12 03:59:03;;;;;;;7.80;6.30;;;;;;;;;;5042694;28;20025;-74
2022/03/12 04:01:30;;;;;;;8.65;6.43;;;;;;;;;;5043128;28;20425;-74
2022/03/12 04:03:56;;;;;;;8.52;6.18;;;;;;;;;;5041147;28;20131;-74
2022/03/12 04:06:23;;;;;;;10.60;6.32;;;;;;;;;;5042044;28;20025;-74
2022/03/12 04:08:50;;;;;;;9.40;6.32;;;;;;;;;;5041947;28;20748;-74
2022/03/12 04:11:26;;;;;;;10.88;6.63;;;;;;;;;;5042276;28;20115;-74
2022/03/12 04:13:52;;;;;;;11.52;5.85;;;;;;;;;;5042099;28;20432;-73
2022/03/12 04:16:19;;;;;;;7.30;5.53;;;;;;;;;;5040904;28;20028;-74
2022/03/12 04:18:46;;;;;;;9.07;5.53;;;;;;;;;;5042364;28;20025;-73
2022/03/12 04:21:13;;;;;;;9.55;6.07;;;;;;;;;;5042631;28;20040;-73
2022/03/12 04:23:40;;;;;;;8.63;5.65;;;;;;;;;;5042638;28;20040;-73
2022/03/12 04:26:06;;;;;;;8.10;5.65;;;;;;;;;;5040699;28;20095;-73
2022/03/12 04:28:33;;;;;;;9.05;5.93;;;;;;;;;;5042089;28;20090;-74
2022/03/12 04:31:00;;;;;;;11.40;5.72;;;;;;;;;;5042754;28;20037;-74
2022/03/12 04:33:28;;;;;;;10.80;7.88;;;;;;;;;;5042774;28;20032;-74
2022/03/12 04:35:55;;;;;;;13.45;8.35;;;;;;;;;;5045370;28;20025;-74
2022/03/12 04:38:21;;;;;;;14.48;8.45;;;;;;;;;;5045239;28;20110;-74
2022/03/12 04:40:47;;;;;;;10.98;7.07;;;;;;;;;;5043822;28;20029;-74
2022/03/12 04:43:14;;;;;;;11.57;7.43;;;;;;;;;;5044849;28;20033;-74
2022/03/12 04:45:43;;;;;;;11.52;7.47;;;;;;;;;;5043166;28;20036;-74
2022/03/12 04:48:12;;;;;;;10.32;7.90;;;;;;;;;;5041856;28;20037;-74
2022/03/12 04:50:38;;;;;;;11.52;7.40;;;;;;;;;;5040530;28;20425;-74
2022/03/12 04:53:05;;;;;;;13.50;7.47;;;;;;;;;;5044548;28;20029;-74
2022/03/12 04:55:31;;;;;;;9.48;7.03;;;;;;;;;;5044626;28;20035;-74
2022/03/12 04:57:58;;;;;;;9.38;6.80;;;;;;;;;;5041344;28;20052;-73
2022/03/12 05:00:28;;;;;;;11.18;7.18;;;;;;;;;;5041389;28;20171;-74
2022/03/12 05:02:57;;;;;;;11.73;7.13;;;;;;;;;;5041672;28;20167;-74
2022/03/12 05:05:23;;;;;;;13.63;7.00;;;;;;;;;;5041725;28;20032;-74
2022/03/12 05:07:50;;;;;;;9.82;6.70;;;;;;;;;;5040091;28;20044;-74
2022/03/12 05:10:17;;;;;;;13.50;7.78;;;;;;;;;;5041365;28;20029;-74
2022/03/12 05:12:43;;;;;;;8.75;7.25;;;;;;;;;;5040603;28;20060;-74
2022/03/12 05:15:15;;;;;;;10.35;7.43;;;;;;;;;;5041423;28;20033;-74
2022/03/12 05:17:47;;;;;;;10.95;6.95;;;;;;;;;;5041560;28;20055;-74
2022/03/12 05:20:13;;;;;;;;;;;;;;;;;;5040321;28;20041;-74
2022/03/12 05:22:40;;;;;;;9.45;6.97;;;;;;;;;;5040961;28;20021;-74
2022/03/12 05:25:07;;;;;;;9.30;6.97;;;;;;;;;;5041219;28;20467;-74
2022/03/12 05:27:34;;;;;;;8.85;6.93;;;;;;;;;;5040913;28;20041;-74
2022/03/12 05:30:00;;;;;;;11.07;7.15;;;;;;;;;;5039390;28;20052;-74
2022/03/12 05:32:26;;;;;;;7.78;6.97;;;;;;;;;;5040652;28;20024;-75
2022/03/12 05:34:52;;;;;;;10.38;6.72;;;;;;;;;;5039045;28;20064;-73
2022/03/12 05:37:19;;;;;;;11.75;7.07;;;;;;;;;;5040526;28;20072;-74
2022/03/12 05:39:45;;;;;;;10.30;6.43;;;;;;;;;;5040830;28;20219;-73
2022/03/12 05:42:12;;;;;;;12.68;6.20;;;;;;;;;;5040607;28;20075;-73
2022/03/12 05:44:40;;;;;;;9.68;6.90;;;;;;;;;;5038613;28;20029;-74
2022/03/12 05:47:10;;;;;;;12.80;6.45;;;;;;;;;;5040359;28;20274;-73
2022/03/12 05:49:36;;;;;;;9.13;5.95;;;;;;;;;;5040890;28;20040;-73
2022/03/12 05:52:03;;;;;;;13.90;5.65;;;;;;;;;;5039047;28;20382;-74
2022/03/12 05:54:29;;;;;;;8.23;6.53;;;;;;;;;;5039524;28;20037;-73
2022/03/12 05:56:56;;;;;;;9.05;5.90;;;;;;;;;;5039934;28;20431;-73
2022/03/12 05:59:23;;;;;;;9.02;6.22;;;;;;;;;;5040254;28;20033;-73
2022/03/12 06:01:52;;;;;;;12.00;6.22;;;;;;;;;;5040135;28;20071;-73
2022/03/12 06:04:25;;;;;;;8.40;6.93;;;;;;;;;;5040143;28;20025;-73
2022/03/12 06:06:52;;;;;;;8.05;6.00;;;;;;;;;;5039087;28;20033;-73
2022/03/12 06:09:18;;;;;;;10.27;6.25;;;;;;;;;;5040448;28;20029;-73
2022/03/12 06:11:45;;;;;;;8.82;5.88;;;;;;;;;;5040322;28;20501;-73
2022/03/12 06:14:16;;;;;;;15.75;9.02;;;;;;;;;;5039809;28;20533;-73
2022/03/12 06:16:46;;;;;;;20.70;14.48;;;;;;;;;;5039037;28;20079;-73
2022/03/12 06:19:12;;;;;;;24.38;15.15;;;;;;;;;;5040296;28;20462;-73
2022/03/12 06:21:38;;;;;;;20.40;15.43;;;;;;;;;;5040173;28;20025;-74
2022/03/12 06:24:04;;;;;;;20.45;14.20;;;;;;;;;;5040085;28;20033;-73
2022/03/12 06:26:35;;;;;;;20.00;14.10;;;;;;;;;;5040272;28;20032;-73
2022/03/12 06:29:03;;;;;;;16.57;12.57;;;;;;;;;;5038808;28;20043;-74
2022/03/12 06:31:31;;;;;;;21.85;14.20;;;;;;;;;;5040469;28;20266;-74
2022/03/12 06:33:57;;;;;;;23.23;14.40;;;;;;;;;;5037400;28;20037;-74
2022/03/12 06:36:24;;;;;;;21.08;14.95;;;;;;;;;;5038988;28;20517;-74
2022/03/12 06:38:50;;;;;;;22.05;15.43;;;;;;;;;;5039637;28;20033;-73
2022/03/12 06:41:20;;;;;;;22.45;15.27;;;;;;;;;;5025619;28;20034;-73
2022/03/12 06:43:46;;;;;;;24.13;16.27;;;;;;;;;;5032752;28;20029;-74
2022/03/12 06:46:15;;;;;;;23.92;16.27;;;;;;;;;;5042359;28;20024;-73
2022/03/12 06:48:42;;;;;;;24.20;16.15;;;;;;;;;;5042317;28;20414;-72
2022/03/12 06:51:10;;;;;;;25.58;15.85;;;;;;;;;;5040894;28;20120;-74
2022/03/12 06:53:37;;;;;;;21.73;14.50;;;;;;;;;;5041554;28;20028;-74
2022/03/12 06:56:04;;;;;;;17.20;11.63;;;;;;;;;;5041337;28;20033;-74
2022/03/12 06:58:30;;;;;;;16.60;13.23;;;;;;;;;;5041686;28;20025;-74
2022/03/12 07:00:57;;;;;;;42.75;29.42;;;;;;;;;;5039792;28;20036;-74
2022/03/12 07:03:24;;;;;;;41.75;25.35;;;;;;;;;;5041653;28;20505;-74
2022/03/12 07:05:51;;;;;;;103.43;63.90;;;;;;;;;;5041693;28;20029;-74
2022/03/12 07:08:19;;;;;;;63.85;38.33;;;;;;;;;;5041361;28;20119;-75
2022/03/12 07:10:49;;;;;;;28.70;17.17;;;;;;;;;;5045232;28;20024;-75
2022/03/12 07:13:16;;;;;;;22.08;16.25;;;;;;;;;;5044432;28;20052;-73
2022/03/12 07:15:42;;;;;;;21.33;14.27;;;;;;;;;;5045181;28;20078;-75
2022/03/12 07:18:09;;;;;;;30.55;17.92;;;;;;;;;;5044082;28;20610;-75
2022/03/12 07:20:35;;;;;;;44.03;22.15;;;;;;;;;;5041934;28;20025;-75
2022/03/12 07:23:01;;;;;;;79.18;40.50;;;;;;;;;;5043240;28;20485;-75
2022/03/12 07:25:28;;;;;;;66.88;36.97;;;;;;;;;;5043664;28;20092;-74
2022/03/12 07:27:54;;;;;;;51.58;30.02;;;;;;;;;;5043059;28;20052;-75
2022/03/12 07:30:21;;;;;;;19.65;13.57;;;;;;;;;;5041915;28;20021;-76
2022/03/12 07:32:48;;;;;;;12.50;9.38;;;;;;;;;;5042750;28;20497;-75
2022/03/12 07:35:15;;;;;;;28.75;20.02;;;;;;;;;;5042927;28;20098;-75
2022/03/12 07:37:42;;;;;;;23.08;15.02;;;;;;;;;;5041311;28;20040;-76
2022/03/12 07:40:09;;;;;;;13.27;8.85;;;;;;;;;;5041743;28;20043;-74
2022/03/12 07:42:35;;;;;;;12.57;8.05;;;;;;;;;;5042799;28;20032;-75
2022/03/12 07:45:02;;;;;;;41.22;27.05;;;;;;;;;;5042467;28;20033;-75
2022/03/12 07:47:28;;;;;;;71.03;42.97;;;;;;;;;;5042778;28;20723;-75
2022/03/12 07:49:54;;;;;;;58.90;36.20;;;;;;;;;;5042674;28;20788;-75
2022/03/12 07:52:20;;;;;;;23.75;16.50;;;;;;;;;;5041435;28;20780;-75
2022/03/12 07:54:46;;;;;;;10.88;9.73;;;;;;;;;;5042731;28;20464;-76
2022/03/12 07:57:13;;;;;;;30.85;17.27;;;;;;;;;;5041400;28;20564;-76
2022/03/12 07:59:39;;;;;;;31.92;16.00;;;;;;;;;;5037718;28;20028;-76
2022/03/12 08:02:06;;;;;;;15.77;10.60;;;;;;;;;;5041477;28;20116;-75
2022/03/12 08:04:33;;;;;;;18.40;13.65;;;;;;;;;;5040114;28;20110;-76
2022/03/12 08:07:03;;;;;;;35.95;20.60;;;;;;;;;;5042098;28;20079;-74
2022/03/12 08:09:31;;;;;;;18.27;10.75;;;;;;;;;;5042399;28;20040;-75
2022/03/12 08:11:58;;;;;;;12.35;9.45;;;;;;;;;;5034093;28;20056;-75
2022/03/12 08:14:24;;;;;;;24.25;14.60;;;;;;;;;;5036302;28;20033;-75
2022/03/12 08:16:52;;;;;;;21.42;13.15;;;;;;;;;;5041875;28;20394;-75
2022/03/12 08:19:19;;;;;;;14.80;8.95;;;;;;;;;;5041868;28;20029;-75
2022/03/12 08:21:45;;;;;;;11.80;8.23;;;;;;;;;;5042109;28;20151;-74
2022/03/12 08:24:15;;;;;;;97.35;49.42;;;;;;;;;;5041224;28;20063;-76
2022/03/12 08:26:42;;;;;;;22.70;13.55;;;;;;;;;;5037731;28;20067;-75
2022/03/12 08:29:12;;;;;;;17.80;11.68;;;;;;;;;;5038087;28;20033;-74
2022/03/12 08:31:39;;;;;;;14.82;8.23;;;;;;;;;;5042088;28;20116;-75
2022/03/12 08:34:05;;;;;;;11.18;7.95;;;;;;;;;;5037448;28;20102;-74
2022/03/12 08:36:31;;;;;;;14.68;9.43;;;;;;;;;;5021800;28;20029;-75
2022/03/12 08:38:57;;;;;;;11.73;8.43;;;;;;;;;;5033329;28;20055;-74
2022/03/12 08:41:24;;;;;;;8.20;6.97;;;;;;;;;;5041160;28;20099;-76
2022/03/12 08:43:51;;;;;;;13.48;7.53;;;;;;;;;;5041873;28;20432;-75
2022/03/12 08:46:17;;;;;;;10.70;7.97;;;;;;;;;;5041516;28;20493;-74
2022/03/12 08:48:44;;;;;;;9.85;6.68;;;;;;;;;;5042033;28;20148;-74
2022/03/12 08:51:10;;;;;;;9.65;7.40;;;;;;;;;;5039836;28;20052;-75
2022/03/12 08:53:36;;;;;;;12.25;7.57;;;;;;;;;;5041616;28;20025;-75
2022/03/12 08:56:03;;;;;;;9.20;6.82;;;;;;;;;;5041454;28;20025;-75
2022/03/12 08:58:30;;;;;;;8.27;6.35;;;;;;;;;;5041796;28;20033;-75
2022/03/12 09:00:57;;;;;;;8.05;6.85;;;;;;;;;;5041149;28;20119;-74
2022/03/12 09:03:24;;;;;;;15.30;9.93;;;;;;;;;;5040097;28;20041;-75
2022/03/12 09:05:51;;;;;;;14.05;7.88;;;;;;;;;;5041587;28;20037;-75
2022/03/12 09:08:18;;;;;;;8.23;7.00;;;;;;;;;;5040241;28;20096;-75
2022/03/12 09:10:44;;;;;;;7.50;6.32;;;;;;;;;;5039554;28;20105;-75
2022/03/12 09:13:16;;;;;;;10.63;7.35;;;;;;;;;;5039636;28;20748;-75
2022/03/12 09:15:42;;;;;;;;;;;;;;;;;;5039832;28;20029;-75
2022/03/12 09:18:09;;;;;;;9.15;6.30;;;;;;;;;;5031999;28;19986;-75
2022/03/12 09:20:42;;;;;;;8.85;6.32;;;;;;;;;;5028390;28;20523;-75
2022/03/12 09:23:08;;;;;;;9.00;6.15;;;;;;;;;;5039393;28;20040;-75
2022/03/12 09:25:34;;;;;;;9.32;6.18;;;;;;;;;;5041269;28;20862;-75
2022/03/12 09:28:00;;;;;;;8.55;6.78;;;;;;;;;;5034715;28;20052;-75
2022/03/12 09:30:27;;;;;;;13.75;7.13;;;;;;;;;;5030138;28;20140;-74
2022/03/12 09:32:53;;;;;;;8.32;6.97;;;;;;;;;;5020289;28;20033;-75
2022/03/12 09:35:20;;;;;;;9.98;7.28;;;;;;;;;;5020890;28;20260;-74
2022/03/12 09:37:46;;;;;;;15.07;7.80;;;;;;;;;;5019467;28;20100;-75
2022/03/12 09:40:16;;;;;;;8.25;6.75;;;;;;;;;;5021184;28;20036;-74
2022/03/12 09:42:42;;;;;;;9.60;7.65;;;;;;;;;;5019095;28;20032;-75
2022/03/12 09:45:09;;;;;;;10.60;7.03;;;;;;;;;;5036478;28;20033;-74
2022/03/12 09:47:35;;;;;;;11.27;8.13;;;;;;;;;;5040247;28;20037;-75
2022/03/12 09:50:02;;;;;;;11.25;7.53;;;;;;;;;;5040797;28;20017;-75
2022/03/12 09:52:29;;;;;;;9.95;7.20;;;;;;;;;;5038963;28;20025;-75
2022/03/12 09:54:55;;;;;;;9.43;6.57;;;;;;;;;;5040472;28;20115;-75
2022/03/12 09:57:21;;;;;;;8.73;6.45;;;;;;;;;;5025448;28;20040;-74
2022/03/12 09:59:48;;;;;;;10.82;7.30;;;;;;;;;;5037360;28;20025;-75
2022/03/12 10:02:14;;;;;;;9.10;7.13;;;;;;;;;;5038965;28;20481;-75
2022/03/12 10:04:43;;;;;;;8.77;6.65;;;;;;;;;;5034283;28;20040;-76
2022/03/12 10:07:10;;;;;;;9.02;6.80;;;;;;;;;;5020944;28;20099;-76
2022/03/12 10:09:39;;;;;;;10.98;6.60;;;;;;;;;;5025901;28;20021;-77
2022/03/12 10:12:06;;;;;;;10.25;7.00;;;;;;;;;;5032685;28;20078;-78
2022/03/12 10:14:32;;;;;;;10.38;6.72;;;;;;;;;;5023385;28;20032;-76
2022/03/12 10:17:02;;;;;;;10.10;7.45;;;;;;;;;;5037777;28;20039;-76
2022/03/12 10:19:30;;;;;;;9.27;6.70;;;;;;;;;;5037692;28;20438;-76
2022/03/12 10:21:56;;;;;;;8.90;7.10;;;;;;;;;;5031582;28;20144;-77
2022/03/12 10:24:23;;;;;;;10.80;7.38;;;;;;;;;;5021952;28;20396;-77
2022/03/12 10:26:49;;;;;;;10.13;7.13;;;;;;;;;;5036087;28;20096;-77
2022/03/12 10:29:15;;;;;;;9.38;6.63;;;;;;;;;;5038898;28;20037;-77
2022/03/12 10:31:41;;;;;;;9.52;6.82;;;;;;;;;;5038661;28;20032;-76
2022/03/12 10:34:19;;;;;;;9.82;6.82;;;;;;;;;;5037685;28;20511;-77
2022/03/12 10:36:46;;;;;;;7.72;6.45;;;;;;;;;;5037688;28;20560;-76
2022/03/12 10:39:12;;;;;;;8.82;7.03;;;;;;;;;;5038059;28;20538;-77
2022/03/12 10:41:39;;;;;;;10.88;6.38;;;;;;;;;;5037401;28;20545;-77
2022/03/12 10:44:05;;;;;;;9.70;7.22;;;;;;;;;;5032067;28;20862;-77
2022/03/12 10:46:33;;;;;;;9.63;6.70;;;;;;;;;;5033203;28;20025;-76
2022/03/12 10:48:59;;;;;;;10.70;7.55;;;;;;;;;;5035428;28;20043;-77
2022/03/12 10:51:39;;;;;;;10.15;6.38;;;;;;;;;;5032704;28;20515;-78
2022/03/12 10:54:08;;;;;;;8.38;6.50;;;;;;;;;;5035655;28;20029;-77
2022/03/12 10:56:51;;;;;;;14.38;7.75;;;;;;;;;;5037874;28;20017;-77
2022/03/12 10:59:21;;;;;;;10.85;6.90;;;;;;;;;;5037695;28;20605;-77
2022/03/12 11:01:48;;;;;;;9.13;6.28;;;;;;;;;;5038548;28;20089;-78
2022/03/12 11:04:35;;;;;;;9.93;7.15;;;;;;;;;;5031558;28;20052;-78
2022/03/12 11:07:21;;;;;;;13.73;6.85;;;;;;;;;;5038131;28;20357;-76
2022/03/12 11:09:47;;;;;;;9.63;7.25;;;;;;;;;;5036243;28;20060;-75
2022/03/12 11:12:29;;;;;;;11.80;8.88;;;;;;;;;;5039064;28;20049;-77
2022/03/12 11:15:04;;;;;;;6.97;6.25;;;;;;;;;;5036112;28;20061;-77
2022/03/12 11:17:34;;;;;;;9.68;8.10;;;;;;;;;;5038005;28;20072;-77
2022/03/12 11:20:01;;;;;;;10.35;7.47;;;;;;;;;;5037840;28;20060;-75
2022/03/12 11:22:27;;;;;;;8.70;7.20;;;;;;;;;;5020953;28;20090;-76
2022/03/12 11:24:57;;;;;;;9.70;8.00;;;;;;;;;;5035146;28;20025;-78
2022/03/12 11:27:33;;;;;;;11.07;7.32;;;;;;;;;;5031588;28;20033;-77
2022/03/12 11:30:00;;;;;;;9.10;7.63;;;;;;;;;;5030422;28;20214;-76
2022/03/12 11:32:30;;;;;;;10.25;7.65;;;;;;;;;;5037408;28;20032;-78
2022/03/12 11:35:04;;;;;;;8.57;7.38;;;;;;;;;;5039228;28;20044;-76
2022/03/12 11:37:37;;;;;;;11.98;7.93;;;;;;;;;;5025617;28;20083;-76
2022/03/12 11:40:05;;;;;;;10.68;8.18;;;;;;;;;;5035636;28;20029;-77
2022/03/12 11:42:32;;;;;;;10.13;7.97;;;;;;;;;;5036988;28;20064;-78
2022/03/12 11:44:59;;;;;;;10.48;8.38;;;;;;;;;;5038651;28;20039;-77
2022/03/12 11:47:30;;;;;;;15.63;9.35;;;;;;;;;;5035725;28;20033;-77
2022/03/12 11:49:57;;;;;;;11.65;8.18;;;;;;;;;;5036709;28;20028;-78
2022/03/12 11:52:23;;;;;;;11.63;8.20;;;;;;;;;;5035656;28;20542;-76
2022/03/12 11:54:56;;;;;;;12.13;9.23;;;;;;;;;;5038832;28;20068;-78
2022/03/12 11:57:34;;;;;;;12.70;8.68;;;;;;;;;;5040589;28;20033;-76
2022/03/12 12:00:00;;;;;;;13.25;8.00;;;;;;;;;;5040005;28;20059;-75
2022/03/12 12:02:31;;;;;;;10.38;8.00;;;;;;;;;;5040369;28;20028;-74
2022/03/12 12:04:59;;;;;;;10.20;7.83;;;;;;;;;;5028919;28;20037;-76
2022/03/12 12:07:31;;;;;;;10.38;8.10;;;;;;;;;;5036830;28;20661;-77
2022/03/12 12:09:58;;;;;;;9.05;7.32;;;;;;;;;;5043895;28;20627;-78
2022/03/12 12:12:27;;;;;;;9.25;6.95;;;;;;;;;;5043736;28;20048;-74
2022/03/12 12:14:57;;;;;;;12.93;8.38;;;;;;;;;;5043438;28;20071;-78
2022/03/12 12:17:23;;;;;;;8.98;7.93;;;;;;;;;;5043160;28;20021;-79
2022/03/12 12:19:50;;;;;;;16.65;8.48;;;;;;;;;;5041485;28;20999;-76
2022/03/12 12:22:18;;;;;;;10.65;8.35;;;;;;;;;;5041159;28;20033;-77
2022/03/12 12:24:44;;;;;;;9.70;7.65;;;;;;;;;;5039208;28;20580;-78
2022/03/12 12:27:11;;;;;;;11.82;8.02;;;;;;;;;;5038834;28;20041;-76
2022/03/12 12:29:37;;;;;;;12.25;8.27;;;;;;;;;;5041152;28;20513;-76
2022/03/12 12:32:04;;;;;;;12.60;8.13;;;;;;;;;;5040966;28;20035;-75
2022/03/12 12:34:30;;;;;;;9.60;7.93;;;;;;;;;;5041108;28;20068;-75
2022/03/12 12:37:00;;;;;;;8.00;6.97;;;;;;;;;;5030459;28;20025;-77
2022/03/12 12:39:26;;;;;;;13.32;9.82;;;;;;;;;;5023388;28;20025;-75
2022/03/12 12:41:52;;;;;;;15.60;9.90;;;;;;;;;;5041447;28;20639;-77
2022/03/12 12:44:34;;;;;;;14.63;9.80;;;;;;;;;;5041707;28;20024;-78
2022/03/12 12:47:02;;;;;;;12.57;8.90;;;;;;;;;;5041383;28;20126;-76
2022/03/12 12:49:37;;;;;;;18.92;11.20;;;;;;;;;;5039621;28;20055;-75
2022/03/12 12:52:04;;;;;;;15.48;10.95;;;;;;;;;;5036114;28;20045;-76
2022/03/12 12:54:57;;;;;;;17.85;9.82;;;;;;;;;;5038368;28;20082;-75
2022/03/12 12:57:39;;;;;;;17.63;9.38;;;;;;;;;;5040133;28;20052;-75
2022/03/12 13:00:05;;;;;;;;;;;;;;;;;;5038569;28;20062;-75
2022/03/12 13:02:45;;;;;;;16.27;9.60;;;;;;;;;;5040702;28;20503;-75
2022/03/12 13:05:12;;;;;;;12.70;7.75;;;;;;;;;;5037977;28;20052;-75
2022/03/12 13:07:48;;;;;;;10.40;8.05;;;;;;;;;;5042442;28;20130;-75
2022/03/12 13:10:25;;;;;;;12.63;8.52;;;;;;;;;;5041994;28;20021;-75
2022/03/12 13:12:51;;;;;;;16.30;8.02;;;;;;;;;;5043645;28;20036;-76
2022/03/12 13:15:22;;;;;;;15.73;9.23;;;;;;;;;;5043400;28;20492;-75
2022/03/12 13:17:49;;;;;;;13.48;8.13;;;;;;;;;;5043456;28;20031;-75
2022/03/12 13:20:30;;;;;;;15.32;10.30;;;;;;;;;;5041925;28;20029;-75
2022/03/12 13:23:00;;;;;;;22.05;14.38;;;;;;;;;;5041699;28;20033;-75
2022/03/12 13:25:26;;;;;;;13.60;10.50;;;;;;;;;;5040193;28;20017;-75
2022/03/12 13:28:00;;;;;;;13.95;9.20;;;;;;;;;;5042266;28;20033;-75
2022/03/12 13:30:26;;;;;;;12.27;8.15;;;;;;;;;;5041730;28;20029;-76
2022/03/12 13:32:53;;;;;;;9.70;8.00;;;;;;;;;;5041286;28;20128;-75
2022/03/12 13:35:21;;;;;;;13.38;8.98;;;;;;;;;;5042683;28;20029;-75
2022/03/12 13:37:48;;;;;;;12.07;8.52;;;;;;;;;;5043167;28;20483;-75
2022/03/12 13:40:16;;;;;;;12.85;9.07;;;;;;;;;;5041979;28;20024;-75
2022/03/12 13:43:09;;;;;;;16.65;9.52;;;;;;;;;;5043306;28;20024;-75
2022/03/12 13:45:35;;;;;;;12.88;8.38;;;;;;;;;;5041071;28;20037;-75
2022/03/12 13:48:02;;;;;;;12.27;8.25;;;;;;;;;;5042880;28;20112;-75
2022/03/12 13:50:30;;;;;;;10.38;7.97;;;;;;;;;;5041215;28;20024;-76
2022/03/12 13:52:57;;;;;;;12.07;9.30;;;;;;;;;;5042368;28;20152;-75
2022/03/12 13:55:24;;;;;;;12.95;8.35;;;;;;;;;;5042586;28;20045;-76
2022/03/12 13:57:50;;;;;;;15.07;9.05;;;;;;;;;;5042536;28;20025;-75
2022/03/12 14:00:19;;;;;;;11.07;7.68;;;;;;;;;;5041229;28;20025;-75
2022/03/12 14:02:49;;;;;;;17.52;10.23;;;;;;;;;;5042689;28;20029;-75
2022/03/12 14:05:25;;;;;;;16.92;11.25;;;;;;;;;;5042953;28;20391;-75
2022/03/12 14:07:51;;;;;;;14.00;9.20;;;;;;;;;;5042270;28;20037;-75
2022/03/12 14:10:18;;;;;;;12.43;8.20;;;;;;;;;;5042281;28;20028;-75
2022/03/12 14:12:46;;;;;;;9.10;7.47;;;;;;;;;;5041175;28;20130;-75
2022/03/12 14:15:14;;;;;;;11.90;8.98;;;;;;;;;;5042964;28;20021;-76
2022/03/12 14:17:41;;;;;;;11.48;7.85;;;;;;;;;;5041827;28;20025;-75
2022/03/12 14:20:11;;;;;;;12.30;9.38;;;;;;;;;;5042217;28;20033;-75
2022/03/12 14:22:37;;;;;;;13.27;8.65;;;;;;;;;;5042127;28;20032;-76
2022/03/12 14:25:05;;;;;;;10.95;8.57;;;;;;;;;;5042673;28;20059;-75
2022/03/12 14:27:32;;;;;;;14.75;9.10;;;;;;;;;;5040976;28;20464;-76
2022/03/12 14:29:59;;;;;;;12.65;9.40;;;;;;;;;;5042270;28;20043;-75
2022/03/12 14:32:26;;;;;;;12.18;8.60;;;;;;;;;;5041704;28;20017;-75
2022/03/12 14:34:53;;;;;;;11.35;8.27;;;;;;;;;;5042019;28;20509;-75
2022/03/12 14:37:20;;;;;;;11.60;8.57;;;;;;;;;;5042416;28;20059;-75
2022/03/12 14:39:49;;;;;;;9.82;8.63;;;;;;;;;;5039007;28;20111;-75
2022/03/12 14:42:16;;;;;;;15.25;9.75;;;;;;;;;;5041834;28;20032;-76